sensor_id;sensor_type;location;lat;lon;timestamp;pressure;altitude;pressure_sealevel;temperature;humidity
51986;BME280;38002;53.296;6.600;2023-04-27T00:01:13;102338.16;;;3.48;77.40
51986;BME280;38002;53.296;6.600;2023-04-27T00:06:14;102348.69;;;3.53;77.08
51986;BME280;38002;53.296;6.600;2023-04-27T00:11:14;102354.75;;;3.56;77.00
51986;BME280;38002;53.296;6.600;2023-04-27T00:16:15;102348.09;;;3.63;77.95
51986;BME280;38002;53.296;6.600;2023-04-27T00:21:15;102355.63;;;3.74;76.88
51986;BME280;38002;53.296;6.600;2023-04-27T00:26:16;102343.50;;;3.83;77.60
51986;BME280;38002;53.296;6.600;2023-04-27T00:31:16;102342.19;;;3.90;78.08
51986;BME280;38002;53.296;6.600;2023-04-27T00:36:17;102349.06;;;3.95;77.94
51986;BME280;38002;53.296;6.600;2023-04-27T00:41:17;102339.00;;;3.99;78.03
51986;BME280;38002;53.296;6.600;2023-04-27T00:46:18;102343.34;;;4.01;77.89
51986;BME280;38002;53.296;6.600;2023-04-27T00:51:18;102342.66;;;3.98;78.00
51986;BME280;38002;53.296;6.600;2023-04-27T00:56:19;102345.59;;;3.93;77.40
51986;BME280;38002;53.296;6.600;2023-04-27T01:01:20;102341.50;;;3.86;77.46
51986;BME280;38002;53.296;6.600;2023-04-27T01:06:20;102343.81;;;3.77;77.84
51986;BME280;38002;53.296;6.600;2023-04-27T01:11:21;102342.47;;;3.68;77.84
51986;BME280;38002;53.296;6.600;2023-04-27T01:16:21;102335.78;;;3.59;77.85
51986;BME280;38002;53.296;6.600;2023-04-27T01:21:21;102338.00;;;3.51;78.12
51986;BME280;38002;53.296;6.600;2023-04-27T01:26:22;102340.28;;;3.42;78.38
51986;BME280;38002;53.296;6.600;2023-04-27T01:31:22;102334.44;;;3.34;78.83
51986;BME280;38002;53.296;6.600;2023-04-27T01:36:23;102331.47;;;3.23;78.37
51986;BME280;38002;53.296;6.600;2023-04-27T01:41:23;102334.44;;;3.16;79.35
51986;BME280;38002;53.296;6.600;2023-04-27T01:46:24;102340.16;;;3.10;79.14
51986;BME280;38002;53.296;6.600;2023-04-27T01:51:24;102338.66;;;3.05;79.35
51986;BME280;38002;53.296;6.600;2023-04-27T01:56:25;102355.06;;;2.99;79.57
51986;BME280;38002;53.296;6.600;2023-04-27T02:01:25;102356.25;;;2.93;79.17
51986;BME280;38002;53.296;6.600;2023-04-27T02:06:26;102354.75;;;2.88;79.80
51986;BME280;38002;53.296;6.600;2023-04-27T02:11:26;102359.47;;;2.83;79.39
51986;BME280;38002;53.296;6.600;2023-04-27T02:16:27;102360.72;;;2.76;79.96
51986;BME280;38002;53.296;6.600;2023-04-27T02:21:27;102363.47;;;2.74;79.59
51986;BME280;38002;53.296;6.600;2023-04-27T02:26:28;102367.19;;;2.71;79.29
51986;BME280;38002;53.296;6.600;2023-04-27T02:31:29;102355.94;;;2.63;79.80
51986;BME280;38002;53.296;6.600;2023-04-27T02:36:29;102344.41;;;2.61;80.07
51986;BME280;38002;53.296;6.600;2023-04-27T02:41:31;102341.13;;;2.55;79.34
51986;BME280;38002;53.296;6.600;2023-04-27T02:46:31;102337.97;;;2.47;79.77
51986;BME280;38002;53.296;6.600;2023-04-27T02:51:32;102339.16;;;2.41;79.92
51986;BME280;38002;53.296;6.600;2023-04-27T02:56:32;102337.63;;;2.36;80.34
51986;BME280;38002;53.296;6.600;2023-04-27T03:01:33;102344.13;;;2.30;80.27
51986;BME280;38002;53.296;6.600;2023-04-27T03:06:33;102342.59;;;2.24;79.90
51986;BME280;38002;53.296;6.600;2023-04-27T03:11:33;102335.75;;;2.19;79.67
51986;BME280;38002;53.296;6.600;2023-04-27T03:16:34;102333.34;;;2.13;80.13
51986;BME280;38002;53.296;6.600;2023-04-27T03:21:34;102341.53;;;2.10;80.01
51986;BME280;38002;53.296;6.600;2023-04-27T03:26:35;102334.56;;;2.06;79.86
51986;BME280;38002;53.296;6.600;2023-04-27T03:31:35;102331.22;;;2.01;80.48
51986;BME280;38002;53.296;6.600;2023-04-27T03:36:36;102327.81;;;1.97;80.52
51986;BME280;38002;53.296;6.600;2023-04-27T03:41:36;102338.75;;;1.93;80.19
51986;BME280;38002;53.296;6.600;2023-04-27T03:46:37;102326.44;;;1.89;80.70
51986;BME280;38002;53.296;6.600;2023-04-27T03:51:37;102326.44;;;1.89;81.30
51986;BME280;38002;53.296;6.600;2023-04-27T03:56:41;102329.19;;;1.87;80.72
51986;BME280;38002;53.296;6.600;2023-04-27T04:01:43;102337.16;;;1.89;83.06
51986;BME280;38002;53.296;6.600;2023-04-27T04:06:43;102331.88;;;1.87;81.46
51986;BME280;38002;53.296;6.600;2023-04-27T04:11:44;102335.47;;;1.86;81.72
51986;BME280;38002;53.296;6.600;2023-04-27T04:16:44;102333.00;;;1.81;81.07
51986;BME280;38002;53.296;6.600;2023-04-27T04:21:45;102322.06;;;1.67;81.19
51986;BME280;38002;53.296;6.600;2023-04-27T04:26:46;102342.53;;;1.68;81.65
51986;BME280;38002;53.296;6.600;2023-04-27T04:31:47;102341.75;;;1.66;81.12
51986;BME280;38002;53.296;6.600;2023-04-27T04:36:48;102342.84;;;1.62;80.90
51986;BME280;38002;53.296;6.600;2023-04-27T04:41:50;102348.34;;;1.59;81.73
51986;BME280;38002;53.296;6.600;2023-04-27T04:46:51;102355.56;;;1.57;81.79
51986;BME280;38002;53.296;6.600;2023-04-27T04:51:52;102353.75;;;1.58;81.26
51986;BME280;38002;53.296;6.600;2023-04-27T04:56:52;102355.50;;;1.59;81.31
51986;BME280;38002;53.296;6.600;2023-04-27T05:01:53;102349.19;;;1.60;82.02
51986;BME280;38002;53.296;6.600;2023-04-27T05:06:54;102350.81;;;1.64;82.28
51986;BME280;38002;53.296;6.600;2023-04-27T05:11:55;102362.94;;;1.72;82.60
51986;BME280;38002;53.296;6.600;2023-04-27T05:16:55;102364.25;;;1.82;82.56
51986;BME280;38002;53.296;6.600;2023-04-27T05:21:59;102366.53;;;1.92;82.52
51986;BME280;38002;53.296;6.600;2023-04-27T05:27:00;102368.78;;;2.01;83.24
51986;BME280;38002;53.296;6.600;2023-04-27T05:32:01;102376.09;;;2.16;84.15
51986;BME280;38002;53.296;6.600;2023-04-27T05:37:01;102372.88;;;2.28;84.98
51986;BME280;38002;53.296;6.600;2023-04-27T05:42:02;102374.03;;;2.41;82.36
51986;BME280;38002;53.296;6.600;2023-04-27T05:47:03;102383.09;;;2.57;82.50
51986;BME280;38002;53.296;6.600;2023-04-27T05:52:03;102377.94;;;2.71;82.95
51986;BME280;38002;53.296;6.600;2023-04-27T05:57:04;102380.78;;;2.86;82.77
51986;BME280;38002;53.296;6.600;2023-04-27T06:02:05;102373.88;;;2.99;82.94
51986;BME280;38002;53.296;6.600;2023-04-27T06:07:13;102385.44;;;3.18;81.59
51986;BME280;38002;53.296;6.600;2023-04-27T06:12:13;102376.81;;;3.29;82.24
51986;BME280;38002;53.296;6.600;2023-04-27T06:17:14;102371.06;;;3.36;81.41
51986;BME280;38002;53.296;6.600;2023-04-27T06:22:14;102380.56;;;3.43;82.22
51986;BME280;38002;53.296;6.600;2023-04-27T06:27:15;102374.47;;;3.57;82.34
51986;BME280;38002;53.296;6.600;2023-04-27T06:32:15;102373.41;;;3.77;81.88
51986;BME280;38002;53.296;6.600;2023-04-27T06:37:16;102370.25;;;4.01;82.78
51986;BME280;38002;53.296;6.600;2023-04-27T06:42:17;102374.13;;;4.29;81.06
51986;BME280;38002;53.296;6.600;2023-04-27T06:47:18;102364.41;;;4.57;82.38
51986;BME280;38002;53.296;6.600;2023-04-27T06:52:18;102358.94;;;4.90;80.80
51986;BME280;38002;53.296;6.600;2023-04-27T06:57:19;102355.81;;;5.28;80.03
51986;BME280;38002;53.296;6.600;2023-04-27T07:02:19;102342.13;;;5.61;80.39
51986;BME280;38002;53.296;6.600;2023-04-27T07:07:19;102341.97;;;5.92;78.89
51986;BME280;38002;53.296;6.600;2023-04-27T07:12:20;102344.47;;;6.23;77.88
51986;BME280;38002;53.296;6.600;2023-04-27T07:17:20;102353.22;;;6.55;76.73
51986;BME280;38002;53.296;6.600;2023-04-27T07:22:21;102350.53;;;6.82;75.19
51986;BME280;38002;53.296;6.600;2023-04-27T07:27:21;102335.94;;;7.11;76.14
51986;BME280;38002;53.296;6.600;2023-04-27T07:32:22;102341.66;;;7.46;74.73
51986;BME280;38002;53.296;6.600;2023-04-27T07:37:22;102340.59;;;7.74;73.93
51986;BME280;38002;53.296;6.600;2023-04-27T07:42:23;102336.47;;;7.94;73.95
51986;BME280;38002;53.296;6.600;2023-04-27T07:47:24;102345.00;;;8.13;73.44
51986;BME280;38002;53.296;6.600;2023-04-27T07:52:24;102343.16;;;8.26;72.87
51986;BME280;38002;53.296;6.600;2023-04-27T07:57:25;102347.31;;;8.32;72.54
51986;BME280;38002;53.296;6.600;2023-04-27T08:02:26;102352.59;;;8.33;72.07
51986;BME280;38002;53.296;6.600;2023-04-27T08:07:30;102349.03;;;8.45;69.62
51986;BME280;38002;53.296;6.600;2023-04-27T08:12:31;102343.50;;;8.71;68.36
51986;BME280;38002;53.296;6.600;2023-04-27T08:17:32;102350.72;;;9.06;69.07
51986;BME280;38002;53.296;6.600;2023-04-27T08:22:33;102349.06;;;9.17;67.85
51986;BME280;38002;53.296;6.600;2023-04-27T08:27:37;102342.84;;;9.38;68.26
51986;BME280;38002;53.296;6.600;2023-04-27T08:32:39;102340.66;;;9.54;67.85
51986;BME280;38002;53.296;6.600;2023-04-27T08:37:40;102325.25;;;9.55;66.44
51986;BME280;38002;53.296;6.600;2023-04-27T08:42:53;102335.28;;;9.77;58.36
51986;BME280;38002;53.296;6.600;2023-04-27T08:47:54;102342.97;;;9.83;65.82
51986;BME280;38002;53.296;6.600;2023-04-27T08:52:54;102351.22;;;9.92;64.75
51986;BME280;38002;53.296;6.600;2023-04-27T08:57:56;102356.34;;;10.08;65.69
51986;BME280;38002;53.296;6.600;2023-04-27T09:02:57;102363.28;;;10.57;64.90
51986;BME280;38002;53.296;6.600;2023-04-27T09:08:04;102353.03;;;11.03;63.64
51986;BME280;38002;53.296;6.600;2023-04-27T09:13:07;102347.75;;;11.22;64.17
51986;BME280;38002;53.296;6.600;2023-04-27T09:18:21;102344.72;;;11.36;63.62
51986;BME280;38002;53.296;6.600;2023-04-27T09:23:38;102343.88;;;11.36;56.62
51986;BME280;38002;53.296;6.600;2023-04-27T09:28:48;102359.00;;;11.29;62.91
51986;BME280;38002;53.296;6.600;2023-04-27T09:33:54;102355.53;;;11.27;57.02
51986;BME280;38002;53.296;6.600;2023-04-27T09:38:55;102351.03;;;11.16;62.60
51986;BME280;38002;53.296;6.600;2023-04-27T09:43:56;102358.91;;;11.19;62.65
51986;BME280;38002;53.296;6.600;2023-04-27T09:48:57;102352.22;;;11.23;61.15
51986;BME280;38002;53.296;6.600;2023-04-27T09:53:59;102370.78;;;11.18;58.62
51986;BME280;38002;53.296;6.600;2023-04-27T10:04:44;102364.56;;;10.96;61.32
51986;BME280;38002;53.296;6.600;2023-04-27T10:09:51;102367.91;;;10.88;61.44
51986;BME280;38002;53.296;6.600;2023-04-27T10:14:59;102362.41;;;10.78;61.86
51986;BME280;38002;53.296;6.600;2023-04-27T10:20:06;102363.50;;;10.76;62.40
51986;BME280;38002;53.296;6.600;2023-04-27T10:25:20;102353.25;;;10.68;61.35
51986;BME280;38002;53.296;6.600;2023-04-27T10:30:31;102362.03;;;10.72;61.77
51986;BME280;38002;53.296;6.600;2023-04-27T10:35:56;102357.69;;;10.80;62.17
51986;BME280;38002;53.296;6.600;2023-04-27T10:40:59;102352.19;;;11.03;62.23
51986;BME280;38002;53.296;6.600;2023-04-27T10:46:11;102346.88;;;11.22;62.18
51986;BME280;38002;53.296;6.600;2023-04-27T10:51:15;102338.97;;;11.30;61.64
51986;BME280;38002;53.296;6.600;2023-04-27T10:56:17;102340.28;;;11.35;61.72
51986;BME280;38002;53.296;6.600;2023-04-27T11:01:25;102337.44;;;11.37;61.00
51986;BME280;38002;53.296;6.600;2023-04-27T11:06:29;102333.66;;;11.49;61.68
51986;BME280;38002;53.296;6.600;2023-04-27T11:11:32;102328.16;;;11.60;61.06
51986;BME280;38002;53.296;6.600;2023-04-27T11:16:33;102333.81;;;11.89;61.27
51986;BME280;38002;53.296;6.600;2023-04-27T11:21:33;102331.22;;;12.18;60.01
51986;BME280;38002;53.296;6.600;2023-04-27T11:26:34;102338.88;;;12.24;59.88
51986;BME280;38002;53.296;6.600;2023-04-27T11:36:42;102337.91;;;12.04;59.94
51986;BME280;38002;53.296;6.600;2023-04-27T11:41:43;102340.94;;;11.80;60.44
51986;BME280;38002;53.296;6.600;2023-04-27T11:46:45;102340.25;;;11.47;58.15
51986;BME280;38002;53.296;6.600;2023-04-27T11:51:46;102355.00;;;11.12;62.52
51986;BME280;38002;53.296;6.600;2023-04-27T11:56:47;102354.56;;;10.85;63.65
51986;BME280;38002;53.296;6.600;2023-04-27T12:01:50;102356.34;;;10.64;64.01
51986;BME280;38002;53.296;6.600;2023-04-27T12:06:50;102362.41;;;10.56;64.32
51986;BME280;38002;53.296;6.600;2023-04-27T12:11:51;102364.66;;;10.51;64.32
51986;BME280;38002;53.296;6.600;2023-04-27T12:16:53;102368.00;;;10.43;65.13
51986;BME280;38002;53.296;6.600;2023-04-27T12:21:54;102365.28;;;10.43;65.04
51986;BME280;38002;53.296;6.600;2023-04-27T12:26:54;102363.16;;;10.47;65.04
51986;BME280;38002;53.296;6.600;2023-04-27T12:31:55;102362.91;;;10.50;65.29
51986;BME280;38002;53.296;6.600;2023-04-27T12:36:55;102366.00;;;10.57;65.61
51986;BME280;38002;53.296;6.600;2023-04-27T12:41:56;102356.56;;;10.72;65.64
51986;BME280;38002;53.296;6.600;2023-04-27T12:46:57;102354.78;;;10.93;65.58
51986;BME280;38002;53.296;6.600;2023-04-27T12:51:58;102353.53;;;11.08;65.11
51986;BME280;38002;53.296;6.600;2023-04-27T12:56:59;102345.56;;;11.16;65.02
51986;BME280;38002;53.296;6.600;2023-04-27T13:02:03;102337.69;;;11.34;64.77
51986;BME280;38002;53.296;6.600;2023-04-27T13:07:05;102336.25;;;11.51;64.47
51986;BME280;38002;53.296;6.600;2023-04-27T13:12:05;102332.94;;;11.68;64.62
51986;BME280;38002;53.296;6.600;2023-04-27T13:17:06;102333.16;;;11.76;64.32
51986;BME280;38002;53.296;6.600;2023-04-27T13:22:06;102327.97;;;11.73;64.42
51986;BME280;38002;53.296;6.600;2023-04-27T13:27:09;102332.16;;;11.77;64.09
51986;BME280;38002;53.296;6.600;2023-04-27T13:32:09;102334.88;;;11.77;63.71
51986;BME280;38002;53.296;6.600;2023-04-27T13:37:10;102321.88;;;11.69;63.78
51986;BME280;38002;53.296;6.600;2023-04-27T13:42:10;102324.97;;;11.76;63.81
51986;BME280;38002;53.296;6.600;2023-04-27T13:47:11;102330.03;;;11.80;63.40
51986;BME280;38002;53.296;6.600;2023-04-27T13:52:12;102316.47;;;11.90;63.22
51986;BME280;38002;53.296;6.600;2023-04-27T13:57:13;102307.03;;;11.94;62.85
51986;BME280;38002;53.296;6.600;2023-04-27T14:02:13;102303.88;;;11.99;62.59
51986;BME280;38002;53.296;6.600;2023-04-27T14:07:14;102304.25;;;12.15;62.87
51986;BME280;38002;53.296;6.600;2023-04-27T14:12:14;102289.22;;;12.30;62.73
51986;BME280;38002;53.296;6.600;2023-04-27T14:17:15;102282.94;;;12.39;62.48
51986;BME280;38002;53.296;6.600;2023-04-27T14:22:16;102272.94;;;12.68;62.28
51986;BME280;38002;53.296;6.600;2023-04-27T14:27:16;102268.66;;;12.95;62.07
51986;BME280;38002;53.296;6.600;2023-04-27T14:32:17;102280.06;;;13.19;61.85
51986;BME280;38002;53.296;6.600;2023-04-27T14:37:17;102283.91;;;13.45;61.54
51986;BME280;38002;53.296;6.600;2023-04-27T14:42:18;102275.66;;;13.64;61.41
51986;BME280;38002;53.296;6.600;2023-04-27T14:47:18;102282.84;;;13.75;60.82
51986;BME280;38002;53.296;6.600;2023-04-27T14:52:18;102278.97;;;13.68;60.34
51986;BME280;38002;53.296;6.600;2023-04-27T14:57:19;102286.16;;;13.59;60.82
51986;BME280;38002;53.296;6.600;2023-04-27T15:02:19;102282.19;;;13.44;60.85
51986;BME280;38002;53.296;6.600;2023-04-27T15:07:21;102274.72;;;13.27;58.77
51986;BME280;38002;53.296;6.600;2023-04-27T15:12:22;102285.09;;;13.14;60.98
51986;BME280;38002;53.296;6.600;2023-04-27T15:17:23;102282.03;;;12.88;61.36
51986;BME280;38002;53.296;6.600;2023-04-27T15:22:23;102286.31;;;12.71;62.16
51986;BME280;38002;53.296;6.600;2023-04-27T15:27:27;102284.13;;;12.56;62.07
51986;BME280;38002;53.296;6.600;2023-04-27T15:32:27;102273.75;;;12.40;62.27
51986;BME280;38002;53.296;6.600;2023-04-27T15:37:29;102269.69;;;12.25;62.58
51986;BME280;38002;53.296;6.600;2023-04-27T15:42:29;102263.78;;;12.20;62.65
51986;BME280;38002;53.296;6.600;2023-04-27T15:47:30;102258.88;;;12.14;62.49
51986;BME280;38002;53.296;6.600;2023-04-27T15:52:30;102254.25;;;12.05;62.92
51986;BME280;38002;53.296;6.600;2023-04-27T15:57:31;102241.19;;;11.99;62.97
51986;BME280;38002;53.296;6.600;2023-04-27T16:02:32;102243.44;;;11.94;63.09
51986;BME280;38002;53.296;6.600;2023-04-27T16:07:33;102237.53;;;11.89;63.38
51986;BME280;38002;53.296;6.600;2023-04-27T16:12:35;102238.38;;;11.79;63.29
51986;BME280;38002;53.296;6.600;2023-04-27T16:17:36;102226.38;;;11.71;64.00
51986;BME280;38002;53.296;6.600;2023-04-27T16:22:36;102228.94;;;11.63;63.80
51986;BME280;38002;53.296;6.600;2023-04-27T16:27:37;102229.56;;;11.46;64.33
51986;BME280;38002;53.296;6.600;2023-04-27T16:32:38;102220.59;;;11.34;64.02
51986;BME280;38002;53.296;6.600;2023-04-27T16:37:38;102222.06;;;11.17;64.27
51986;BME280;38002;53.296;6.600;2023-04-27T16:42:38;102220.38;;;11.05;64.92
51986;BME280;38002;53.296;6.600;2023-04-27T16:47:39;102218.06;;;11.01;65.03
51986;BME280;38002;53.296;6.600;2023-04-27T16:52:40;102212.16;;;10.96;65.35
51986;BME280;38002;53.296;6.600;2023-04-27T16:57:41;102210.94;;;10.88;65.11
51986;BME280;38002;53.296;6.600;2023-04-27T17:02:41;102203.56;;;10.79;65.74
51986;BME280;38002;53.296;6.600;2023-04-27T17:07:42;102208.31;;;10.66;65.81
51986;BME280;38002;53.296;6.600;2023-04-27T17:12:42;102193.19;;;10.53;66.05
51986;BME280;38002;53.296;6.600;2023-04-27T17:17:43;102204.69;;;10.45;66.24
51986;BME280;38002;53.296;6.600;2023-04-27T17:22:43;102203.00;;;10.33;66.69
51986;BME280;38002;53.296;6.600;2023-04-27T17:27:45;102206.97;;;10.29;67.26
51986;BME280;38002;53.296;6.600;2023-04-27T17:32:46;102200.31;;;10.22;66.86
51986;BME280;38002;53.296;6.600;2023-04-27T17:37:46;102198.97;;;10.16;67.14
51986;BME280;38002;53.296;6.600;2023-04-27T17:42:47;102190.56;;;10.08;67.25
51986;BME280;38002;53.296;6.600;2023-04-27T17:47:48;102189.47;;;9.99;67.42
51986;BME280;38002;53.296;6.600;2023-04-27T17:52:49;102183.03;;;9.89;67.90
51986;BME280;38002;53.296;6.600;2023-04-27T17:57:50;102176.38;;;9.82;68.14
51986;BME280;38002;53.296;6.600;2023-04-27T18:02:50;102170.56;;;9.76;69.00
51986;BME280;38002;53.296;6.600;2023-04-27T18:07:51;102172.94;;;9.69;69.09
51986;BME280;38002;53.296;6.600;2023-04-27T18:12:52;102165.41;;;9.62;68.95
51986;BME280;38002;53.296;6.600;2023-04-27T18:17:52;102175.28;;;9.51;70.20
51986;BME280;38002;53.296;6.600;2023-04-27T18:22:53;102168.25;;;9.38;69.86
51986;BME280;38002;53.296;6.600;2023-04-27T18:27:53;102169.69;;;9.20;70.33
51986;BME280;38002;53.296;6.600;2023-04-27T18:32:54;102161.03;;;9.03;70.96
51986;BME280;38002;53.296;6.600;2023-04-27T18:37:55;102160.28;;;8.90;70.93
51986;BME280;38002;53.296;6.600;2023-04-27T18:42:55;102169.75;;;8.85;71.28
51986;BME280;38002;53.296;6.600;2023-04-27T18:47:56;102174.16;;;8.75;71.92
51986;BME280;38002;53.296;6.600;2023-04-27T18:52:57;102182.75;;;8.69;70.96
51986;BME280;38002;53.296;6.600;2023-04-27T18:57:58;102184.09;;;8.63;71.90
51986;BME280;38002;53.296;6.600;2023-04-27T19:02:58;102185.31;;;8.59;71.78
51986;BME280;38002;53.296;6.600;2023-04-27T19:07:59;102184.91;;;8.52;71.92
51986;BME280;38002;53.296;6.600;2023-04-27T19:12:59;102174.66;;;8.45;71.78
51986;BME280;38002;53.296;6.600;2023-04-27T19:18:00;102170.81;;;8.36;72.63
51986;BME280;38002;53.296;6.600;2023-04-27T19:23:00;102175.16;;;8.26;73.00
51986;BME280;38002;53.296;6.600;2023-04-27T19:28:00;102177.66;;;8.16;73.53
51986;BME280;38002;53.296;6.600;2023-04-27T19:33:01;102182.56;;;8.11;72.97
51986;BME280;38002;53.296;6.600;2023-04-27T19:38:01;102191.16;;;8.05;72.89
51986;BME280;38002;53.296;6.600;2023-04-27T19:43:03;102176.56;;;7.95;73.03
51986;BME280;38002;53.296;6.600;2023-04-27T19:48:06;102188.88;;;7.99;73.74
51986;BME280;38002;53.296;6.600;2023-04-27T19:53:07;102168.75;;;7.91;74.11
51986;BME280;38002;53.296;6.600;2023-04-27T19:58:07;102173.66;;;7.86;73.67
51986;BME280;38002;53.296;6.600;2023-04-27T20:03:08;102163.38;;;7.78;73.78
51986;BME280;38002;53.296;6.600;2023-04-27T20:08:09;102162.13;;;7.71;75.03
51986;BME280;38002;53.296;6.600;2023-04-27T20:13:10;102161.59;;;7.66;74.47
51986;BME280;38002;53.296;6.600;2023-04-27T20:18:10;102162.00;;;7.60;75.02
51986;BME280;38002;53.296;6.600;2023-04-27T20:23:11;102153.38;;;7.55;74.98
51986;BME280;38002;53.296;6.600;2023-04-27T20:28:11;102149.28;;;7.49;75.68
51986;BME280;38002;53.296;6.600;2023-04-27T20:33:12;102145.06;;;7.45;75.48
51986;BME280;38002;53.296;6.600;2023-04-27T20:38:12;102139.09;;;7.40;75.34
51986;BME280;38002;53.296;6.600;2023-04-27T20:43:13;102142.03;;;7.37;75.87
51986;BME280;38002;53.296;6.600;2023-04-27T20:48:13;102138.03;;;7.30;75.80
51986;BME280;38002;53.296;6.600;2023-04-27T20:53:14;102130.25;;;7.25;76.42
51986;BME280;38002;53.296;6.600;2023-04-27T20:58:14;102133.28;;;7.21;75.82
51986;BME280;38002;53.296;6.600;2023-04-27T21:03:15;102129.38;;;7.12;76.50
51986;BME280;38002;53.296;6.600;2023-04-27T21:08:16;102119.22;;;7.03;76.96
51986;BME280;38002;53.296;6.600;2023-04-27T21:13:16;102126.03;;;6.96;76.75
51986;BME280;38002;53.296;6.600;2023-04-27T21:18:17;102116.50;;;6.91;77.03
51986;BME280;38002;53.296;6.600;2023-04-27T21:23:17;102109.59;;;6.87;76.65
51986;BME280;38002;53.296;6.600;2023-04-27T21:28:18;102092.00;;;6.81;76.96
51986;BME280;38002;53.296;6.600;2023-04-27T21:33:19;102097.06;;;6.73;77.71
51986;BME280;38002;53.296;6.600;2023-04-27T21:38:20;102086.66;;;6.67;77.08
51986;BME280;38002;53.296;6.600;2023-04-27T21:43:20;102086.13;;;6.62;77.29
51986;BME280;38002;53.296;6.600;2023-04-27T21:48:20;102078.47;;;6.56;77.36
51986;BME280;38002;53.296;6.600;2023-04-27T21:53:21;102081.56;;;6.50;76.95
51986;BME280;38002;53.296;6.600;2023-04-27T21:58:22;102072.91;;;6.45;77.73
51986;BME280;38002;53.296;6.600;2023-04-27T22:03:22;102067.81;;;6.40;77.39
51986;BME280;38002;53.296;6.600;2023-04-27T22:08:23;102058.44;;;6.33;77.66
51986;BME280;38002;53.296;6.600;2023-04-27T22:13:23;102048.16;;;6.25;77.80
51986;BME280;38002;53.296;6.600;2023-04-27T22:18:24;102052.88;;;6.22;77.59
51986;BME280;38002;53.296;6.600;2023-04-27T22:23:24;102042.38;;;6.17;77.80
51986;BME280;38002;53.296;6.600;2023-04-27T22:28:25;102042.69;;;6.13;78.02
51986;BME280;38002;53.296;6.600;2023-04-27T22:33:26;102041.31;;;6.07;78.03
51986;BME280;38002;53.296;6.600;2023-04-27T22:38:26;102035.34;;;6.02;78.16
51986;BME280;38002;53.296;6.600;2023-04-27T22:43:26;102029.59;;;5.94;78.02
51986;BME280;38002;53.296;6.600;2023-04-27T22:48:27;102022.78;;;5.88;77.98
51986;BME280;38002;53.296;6.600;2023-04-27T22:53:27;102034.06;;;5.81;78.43
51986;BME280;38002;53.296;6.600;2023-04-27T22:58:28;102019.44;;;5.71;78.57
51986;BME280;38002;53.296;6.600;2023-04-27T23:03:28;102017.28;;;5.63;78.16
51986;BME280;38002;53.296;6.600;2023-04-27T23:08:29;102009.56;;;5.57;78.18
51986;BME280;38002;53.296;6.600;2023-04-27T23:13:30;102007.38;;;5.49;78.36
51986;BME280;38002;53.296;6.600;2023-04-27T23:18:30;102017.59;;;5.44;78.32
51986;BME280;38002;53.296;6.600;2023-04-27T23:23:31;102004.53;;;5.38;78.47
51986;BME280;38002;53.296;6.600;2023-04-27T23:28:32;101996.84;;;5.32;78.70
51986;BME280;38002;53.296;6.600;2023-04-27T23:33:32;101994.56;;;5.26;78.72
51986;BME280;38002;53.296;6.600;2023-04-27T23:38:32;101996.56;;;5.23;78.77
51986;BME280;38002;53.296;6.600;2023-04-27T23:43:33;101983.38;;;5.18;78.96
51986;BME280;38002;53.296;6.600;2023-04-27T23:48:34;101983.38;;;5.18;78.97
51986;BME280;38002;53.296;6.600;2023-04-27T23:53:35;101984.25;;;5.19;79.33
51986;BME280;38002;53.296;6.600;2023-04-27T23:58:36;101972.81;;;5.15;79.02
